Главная страница
METAR-TAF:

METAR-TAF

Аэропорты :

Пудун

Шанхай-Пудун, Китай

широта: 31-07N, долгота: 121-46E, высота над уровнем моря: 4 м

Текущие метеонаблюдения

Эта сводка был подготовлена 32 минут назад, в 06:00 UTC
Ветер 16 Узел от северо-северо-восточный, изменяющийся между северный и восточно-северо-восточный
Температура 18°C
Влажность 49%
Давление 1020 hPa
Видимость 10 км и более
небольшая облачность на высоте 3300 фута

METAR: ZSPD 130600Z 03008MPS 360V060 9999 FEW033 18/07 Q1020 NOSIG

Время: 14:32 (06:32 UTC)

Прогноз

Эта сводка был подготовлена 3 часа и 20 минут назад, в 03:12 UTC
Прогноз действительный с 13-го 06 UTC до 14-го 06 UTC
Ветер 8 Узел от северо-северо-восточный
Видимость: 6000 м
Отдельные облака на высоте 2000 фута

TAF: ZSPD 130312Z 1306/1406 03004MPS 6000 SCT020 TX18/1306Z TN11/1321Z

Метеонаблюдения и прогнозы для более 4000 аэропортов (сводки METAR и TAF).

Имеющиеся станции представлены на карте желтыми и красными точками.

Чтобы увидеть название станции, наведите на нее мышь.

Затем щелкните, чтобы увидеть метеонаблюдения и метеопрогнозы.

Управление картой: чтобы увеличить масштаб, щелкните зеленые кнопки с черным крестиком; чтобы уменьшить масштаб, щелкните зеленую кнопку с тире; для просмотра соседних карт щелкайте зеленые стрелки.


METAR-TAF: